createdAt,value
2022-09-23T00:01:11.990Z,101138.00
2022-09-23T00:07:03.092Z,101134.50
2022-09-23T00:09:50.708Z,101120.41
2022-09-23T00:12:46.384Z,101125.47
2022-09-23T00:15:25.192Z,101099.22
2022-09-23T00:18:29.545Z,101118.94
2022-09-23T00:21:18.260Z,101123.16
2022-09-23T00:23:59.006Z,101119.63
2022-09-23T00:26:33.456Z,101141.22
2022-09-23T00:29:30.452Z,101142.00
2022-09-23T00:32:07.326Z,101131.47
2022-09-23T00:34:49.462Z,101135.69
2022-09-23T00:37:32.269Z,101116.25
2022-09-23T00:43:21.150Z,101066.53
2022-09-23T00:46:07.594Z,101128.78
2022-09-23T00:48:54.000Z,101140.75
2022-09-23T00:51:56.616Z,101133.50
2022-09-23T00:57:54.758Z,101126.19
2022-09-23T01:00:53.520Z,101120.84
2022-09-23T01:04:02.145Z,101111.31
2022-09-23T01:06:55.152Z,101095.63
2022-09-23T01:09:48.454Z,101115.38
2022-09-23T01:16:01.801Z,101113.94
2022-09-23T01:18:56.852Z,101123.16
2022-09-23T01:21:55.200Z,101128.13
2022-09-23T01:25:09.702Z,101103.94
2022-09-23T01:28:02.085Z,101080.31
2022-09-23T01:33:59.308Z,101098.41
2022-09-23T01:36:46.746Z,101099.09
2022-09-23T01:39:30.807Z,101081.16
2022-09-23T01:42:11.461Z,101082.53
2022-09-23T01:44:56.038Z,101070.94
2022-09-23T01:47:42.437Z,101076.97
2022-09-23T01:50:43.472Z,101061.00
2022-09-23T01:53:24.095Z,101070.34
2022-09-23T01:59:14.840Z,101052.09
2022-09-23T02:02:09.328Z,101045.97
2022-09-23T02:05:09.045Z,101034.53
2022-09-23T02:07:57.770Z,101060.16
2022-09-23T02:10:41.825Z,101057.91
2022-09-23T02:13:27.433Z,101061.28
2022-09-23T02:16:26.842Z,101070.22
2022-09-23T02:19:12.459Z,101027.97
2022-09-23T02:22:05.068Z,101056.00
2022-09-23T02:27:58.180Z,101040.00
2022-09-23T02:30:39.734Z,101044.44
2022-09-23T02:33:37.429Z,101047.69
2022-09-23T02:36:24.111Z,101046.81
2022-09-23T02:39:10.209Z,101008.69
2022-09-23T02:42:11.739Z,101033.59
2022-09-23T02:44:57.854Z,101034.31
2022-09-23T02:47:53.632Z,101023.84
2022-09-23T02:50:30.463Z,100996.53
2022-09-23T02:53:17.157Z,100982.19
2022-09-23T02:56:15.019Z,101007.47
2022-09-23T02:58:51.135Z,100996.59
2022-09-23T03:02:03.146Z,100978.09
2022-09-23T03:04:53.591Z,100939.00
2022-09-23T03:07:49.482Z,100997.13
2022-09-23T03:10:43.464Z,100999.16
2022-09-23T03:13:39.118Z,100989.75
2022-09-23T03:16:51.405Z,100989.91
2022-09-23T03:20:03.235Z,100990.84
2022-09-23T03:22:49.103Z,100995.06
2022-09-23T03:25:32.245Z,100990.50
2022-09-23T03:28:26.763Z,100995.28
2022-09-23T03:31:12.950Z,100997.41
2022-09-23T03:33:56.553Z,100996.34
2022-09-23T03:37:05.411Z,100948.19
2022-09-23T03:40:04.282Z,100955.22
2022-09-23T03:42:55.179Z,100996.91
2022-09-23T03:46:14.509Z,100996.91
2022-09-23T03:49:17.065Z,100989.66
2022-09-23T03:51:56.529Z,100996.69
2022-09-23T03:54:44.903Z,100989.78
2022-09-23T03:57:28.878Z,100972.09
2022-09-23T04:00:08.530Z,100959.78
2022-09-23T04:02:53.766Z,100919.94
2022-09-23T04:05:48.490Z,100953.75
2022-09-23T04:08:39.174Z,100953.22
2022-09-23T04:11:21.336Z,100952.28
2022-09-23T04:14:07.882Z,100942.19
2022-09-23T04:16:55.134Z,100930.81
2022-09-23T04:19:34.039Z,100901.59
2022-09-23T04:22:34.842Z,100901.66
2022-09-23T04:25:21.226Z,100919.94
2022-09-23T04:28:15.722Z,100910.28
2022-09-23T04:31:00.966Z,100904.09
2022-09-23T04:33:40.581Z,100893.34
2022-09-23T04:36:25.479Z,100876.31
2022-09-23T04:39:34.588Z,100877.41
2022-09-23T04:42:18.806Z,100878.84
2022-09-23T04:44:55.007Z,100874.22
2022-09-23T04:47:41.420Z,100835.38
2022-09-23T04:50:30.731Z,100857.78
2022-09-23T04:53:15.821Z,100860.78
2022-09-23T04:56:16.615Z,100844.88
2022-09-23T04:58:59.315Z,100848.16
2022-09-23T05:01:54.304Z,100850.25
2022-09-23T05:04:49.429Z,100846.69
2022-09-23T05:07:47.253Z,100836.63
2022-09-23T05:10:41.980Z,100826.97
2022-09-23T05:13:32.590Z,100836.59
2022-09-23T05:16:44.301Z,100824.59
2022-09-23T05:19:31.662Z,100816.56
2022-09-23T05:22:09.513Z,100832.13
2022-09-23T05:25:08.945Z,100823.66
2022-09-23T05:27:45.279Z,100835.22
2022-09-23T05:30:26.885Z,100823.00
2022-09-23T05:33:13.821Z,100757.66
2022-09-23T05:36:09.075Z,100814.78
2022-09-23T05:38:45.353Z,100825.13
2022-09-23T05:41:33.820Z,100820.75
2022-09-23T05:44:13.383Z,100809.34
2022-09-23T05:47:10.233Z,100793.44
2022-09-23T05:50:00.461Z,100809.00
2022-09-23T05:52:45.875Z,100797.75
2022-09-23T05:55:21.149Z,100798.06
2022-09-23T05:58:09.626Z,100801.00
2022-09-23T06:03:55.191Z,100790.31
2022-09-23T06:06:47.023Z,100788.22
2022-09-23T06:09:34.154Z,100786.00
2022-09-23T06:12:16.425Z,100745.06
2022-09-23T06:15:01.008Z,100761.63
2022-09-23T06:17:48.183Z,100793.25
2022-09-23T06:20:45.233Z,100782.84
2022-09-23T06:29:27.930Z,100780.81
2022-09-23T06:32:09.464Z,100786.31
2022-09-23T06:34:53.976Z,100739.88
2022-09-23T06:37:43.844Z,100777.88
2022-09-23T06:40:23.815Z,100771.00
2022-09-23T06:43:15.042Z,100772.84
2022-09-23T06:45:54.875Z,100775.50
2022-09-23T06:51:34.941Z,100777.47
2022-09-23T06:55:02.455Z,100763.75
2022-09-23T06:57:46.302Z,100695.16
2022-09-23T07:00:22.375Z,100755.78
2022-09-23T07:03:01.917Z,100753.16
2022-09-23T07:05:36.331Z,100747.16
2022-09-23T07:08:18.620Z,100746.41
2022-09-23T07:11:04.202Z,100747.47
2022-09-23T07:14:17.922Z,100703.78
2022-09-23T07:20:07.816Z,100759.53
2022-09-23T07:22:48.257Z,100740.53
2022-09-23T07:25:30.174Z,100716.66
2022-09-23T07:28:07.655Z,100754.94
2022-09-23T07:31:00.672Z,100748.03
2022-09-23T07:33:38.772Z,100743.88
2022-09-23T07:36:21.240Z,100759.06
2022-09-23T07:39:13.683Z,100755.97
2022-09-23T07:45:05.917Z,100766.00
2022-09-23T07:47:46.177Z,100760.19
2022-09-23T07:50:36.630Z,100767.59
2022-09-23T07:53:17.832Z,100763.72
2022-09-23T07:56:03.014Z,100752.13
2022-09-23T07:58:41.280Z,100763.75
2022-09-23T08:01:24.137Z,100762.25
2022-09-23T08:04:10.097Z,100767.03
2022-09-23T08:06:48.644Z,100761.22
2022-09-23T08:09:40.460Z,100762.38
2022-09-23T08:12:25.631Z,100747.91
2022-09-23T08:15:15.470Z,100760.38
2022-09-23T08:18:09.783Z,100777.31
2022-09-23T08:20:59.357Z,100776.84
2022-09-23T08:23:35.582Z,100778.97
2022-09-23T08:26:22.442Z,100798.59
2022-09-23T08:29:02.917Z,100802.38
2022-09-23T08:31:59.207Z,100788.41
2022-09-23T08:34:41.666Z,100782.31
2022-09-23T08:37:19.237Z,100728.09
2022-09-23T08:39:58.671Z,100762.94
2022-09-23T08:42:45.082Z,100777.16
2022-09-23T08:45:43.911Z,100778.41
2022-09-23T08:48:39.421Z,100757.00
2022-09-23T08:51:54.459Z,100746.72
2022-09-23T08:54:37.902Z,100748.59
2022-09-23T08:57:16.395Z,100754.81
2022-09-23T09:00:06.809Z,100757.44
2022-09-23T09:02:49.990Z,100743.59
2022-09-23T09:05:36.598Z,100768.00
2022-09-23T09:08:30.301Z,100783.13
2022-09-23T09:14:34.985Z,100777.53
2022-09-23T09:17:31.807Z,100794.97
2022-09-23T09:20:28.583Z,100800.41
2022-09-23T09:23:29.228Z,100748.69
2022-09-23T09:26:20.912Z,100826.00
2022-09-23T09:29:16.824Z,100785.41
2022-09-23T09:32:04.291Z,100806.19
2022-09-23T09:34:56.747Z,100795.84
2022-09-23T09:37:48.121Z,100728.47
2022-09-23T09:40:38.235Z,100789.00
2022-09-23T09:43:43.454Z,100804.69
2022-09-23T09:46:48.922Z,100810.91
2022-09-23T09:49:44.396Z,100804.94
2022-09-23T09:52:46.138Z,100766.09
2022-09-23T09:55:32.532Z,100787.81
2022-09-23T09:58:34.154Z,100786.16
2022-09-23T10:07:36.392Z,100799.44
2022-09-23T10:10:32.732Z,100799.53
2022-09-23T10:13:28.164Z,100788.28
2022-09-23T10:16:10.994Z,100779.56
2022-09-23T10:19:23.543Z,100790.94
2022-09-23T10:22:04.573Z,100798.03
2022-09-23T10:24:46.574Z,100797.31
2022-09-23T10:27:50.824Z,100801.66
2022-09-23T10:30:39.342Z,100766.28
2022-09-23T10:33:46.593Z,100790.50
2022-09-23T10:36:35.208Z,100761.09
2022-09-23T10:39:31.068Z,100780.13
2022-09-23T10:42:32.293Z,100775.69
2022-09-23T10:45:48.892Z,100766.13
2022-09-23T10:48:39.619Z,100765.19
2022-09-23T10:51:26.016Z,100774.91
2022-09-23T10:54:24.393Z,100788.09
2022-09-23T10:57:04.387Z,100764.69
2022-09-23T11:00:10.176Z,100762.81
2022-09-23T11:03:11.961Z,100731.59
2022-09-23T11:06:05.672Z,100734.22
2022-09-23T11:08:58.312Z,100734.16
2022-09-23T11:11:54.606Z,100750.59
2022-09-23T11:15:04.574Z,100748.81
2022-09-23T11:18:26.446Z,100740.16
2022-09-23T11:22:25.861Z,100734.94
2022-09-23T11:25:20.551Z,100727.13
2022-09-23T11:28:32.699Z,100736.69
2022-09-23T11:31:29.788Z,100729.78
2022-09-23T11:34:24.476Z,100732.47
2022-09-23T11:37:05.743Z,100724.75
2022-09-23T11:40:03.746Z,100736.91
2022-09-23T11:42:55.903Z,100723.94
2022-09-23T11:45:54.395Z,100712.66
2022-09-23T11:48:37.820Z,100712.69
2022-09-23T11:51:45.548Z,100719.69
2022-09-23T11:54:31.752Z,100693.88
2022-09-23T11:57:15.365Z,100709.59
2022-09-23T12:00:05.089Z,100701.06
2022-09-23T12:03:04.578Z,100663.13
2022-09-23T12:05:58.768Z,100685.88
2022-09-23T12:08:47.340Z,100674.88
2022-09-23T12:11:49.077Z,100689.81
2022-09-23T12:14:36.570Z,100710.66
2022-09-23T12:17:41.703Z,100732.41
2022-09-23T12:20:50.780Z,100722.78
2022-09-23T12:23:45.264Z,100715.63
2022-09-23T12:26:30.881Z,100706.88
2022-09-23T12:29:17.742Z,100696.34
2022-09-23T12:32:02.987Z,100689.41
2022-09-23T12:35:05.555Z,100675.56
2022-09-23T12:40:55.035Z,100669.59
2022-09-23T12:43:44.076Z,100673.13
2022-09-23T12:46:38.031Z,100691.44
2022-09-23T12:49:51.946Z,100672.31
2022-09-23T12:56:05.081Z,100676.75
2022-09-23T12:59:03.905Z,100671.59
2022-09-23T13:01:54.860Z,100630.94
2022-09-23T13:05:15.455Z,100654.25
2022-09-23T13:08:14.383Z,100667.38
2022-09-23T13:10:59.784Z,100655.19
2022-09-23T13:13:56.160Z,100646.56
2022-09-23T13:16:43.822Z,100636.19
2022-09-23T13:20:16.648Z,100620.53
2022-09-23T13:23:31.164Z,100625.75
2022-09-23T13:26:22.282Z,100620.53
2022-09-23T13:29:15.116Z,100642.25
2022-09-23T13:35:01.748Z,100617.59
2022-09-23T13:37:58.605Z,100626.22
2022-09-23T13:40:46.704Z,100613.03
2022-09-23T13:43:30.041Z,100623.41
2022-09-23T13:46:28.401Z,100604.22
2022-09-23T13:49:17.985Z,100594.69
2022-09-23T13:52:05.396Z,100598.94
2022-09-23T13:55:02.854Z,100590.25
2022-09-23T13:57:54.507Z,100591.97
2022-09-23T14:00:50.298Z,100584.88
2022-09-23T14:03:48.976Z,100583.94
2022-09-23T14:06:33.043Z,100589.19
2022-09-23T14:09:14.197Z,100560.59
2022-09-23T14:11:57.251Z,100564.84
2022-09-23T14:14:36.559Z,100555.22
2022-09-23T14:17:12.852Z,100547.31
2022-09-23T14:20:05.525Z,100516.94
2022-09-23T14:22:53.741Z,100513.94
2022-09-23T14:25:46.999Z,100495.56
2022-09-23T14:28:37.739Z,100492.69
2022-09-23T14:31:20.298Z,100491.69
2022-09-23T14:33:59.298Z,100481.06
2022-09-23T14:37:08.776Z,100486.06
2022-09-23T14:40:25.503Z,100498.16
2022-09-23T14:43:07.730Z,100487.53
2022-09-23T14:45:53.897Z,100482.00
2022-09-23T14:48:35.319Z,100478.47
2022-09-23T14:51:18.554Z,100466.31
2022-09-23T14:54:00.358Z,100464.53
2022-09-23T14:56:59.701Z,100448.81
2022-09-23T14:59:38.800Z,100448.94
2022-09-23T15:02:56.230Z,100441.34
2022-09-23T15:05:57.097Z,100446.75
2022-09-23T15:08:46.602Z,100452.03
2022-09-23T15:14:38.318Z,100419.88
2022-09-23T15:17:23.825Z,100433.59
2022-09-23T15:20:13.337Z,100445.69
2022-09-23T15:23:01.779Z,100443.81
2022-09-23T15:25:48.959Z,100433.34
2022-09-23T15:28:29.617Z,100444.69
2022-09-23T15:31:15.626Z,100444.63
2022-09-23T15:34:01.729Z,100437.56
2022-09-23T15:36:39.228Z,100429.69
2022-09-23T15:39:21.257Z,100422.06
2022-09-23T15:42:08.140Z,100431.56
2022-09-23T15:44:51.399Z,100390.75
2022-09-23T15:47:44.390Z,100416.75
2022-09-23T15:50:21.263Z,100408.91
2022-09-23T15:53:21.497Z,100396.72
2022-09-23T15:56:12.370Z,100381.97
2022-09-23T15:58:55.970Z,100264.50
2022-09-23T16:01:36.935Z,100365.22
2022-09-23T16:04:44.132Z,100345.91
2022-09-23T16:07:33.797Z,100333.50
2022-09-23T16:10:15.397Z,100311.50
2022-09-23T16:12:50.825Z,100313.19
2022-09-23T16:15:37.745Z,100304.34
2022-09-23T16:18:18.891Z,100307.84
2022-09-23T16:21:00.947Z,100320.75
2022-09-23T16:23:41.560Z,100244.31
2022-09-23T16:26:28.734Z,100329.47
2022-09-23T16:29:10.030Z,100341.69
2022-09-23T16:32:10.432Z,100333.00
2022-09-23T16:34:48.255Z,100327.78
2022-09-23T16:37:31.464Z,100329.63
2022-09-23T16:40:11.677Z,100322.63
2022-09-23T16:42:58.945Z,100316.69
2022-09-23T16:45:40.997Z,100313.53
2022-09-23T16:48:20.784Z,100273.25
2022-09-23T16:51:05.092Z,100296.59
2022-09-23T16:53:45.953Z,100279.34
2022-09-23T16:56:28.131Z,100282.00
2022-09-23T16:59:06.879Z,100276.75
2022-09-23T17:02:05.767Z,100275.09
2022-09-23T17:04:53.961Z,100262.97
2022-09-23T17:07:37.766Z,100252.56
2022-09-23T17:10:40.290Z,100252.50
2022-09-23T17:13:18.360Z,100241.09
2022-09-23T17:15:58.072Z,100234.94
2022-09-23T17:18:38.198Z,100194.31
2022-09-23T17:21:28.889Z,100230.66
2022-09-23T17:24:12.225Z,100233.41
2022-09-23T17:27:09.554Z,100209.97
2022-09-23T17:29:48.442Z,100200.31
2022-09-23T17:32:36.636Z,100191.69
2022-09-23T17:35:31.375Z,100183.75
2022-09-23T17:38:13.883Z,100181.25
2022-09-23T17:41:02.369Z,100169.03
2022-09-23T17:44:05.967Z,100160.34
2022-09-23T17:46:51.451Z,100164.84
2022-09-23T17:49:38.204Z,100156.25
2022-09-23T17:52:32.272Z,100145.13
2022-09-23T17:55:17.235Z,100145.13
2022-09-23T17:58:02.119Z,100150.44
2022-09-23T18:00:58.727Z,100152.22
2022-09-23T18:03:42.992Z,100143.59
2022-09-23T18:06:27.529Z,100138.44
2022-09-23T18:09:10.357Z,100153.22
2022-09-23T18:12:25.353Z,100101.34
2022-09-23T18:15:12.014Z,100147.06
2022-09-23T18:17:50.368Z,100138.25
2022-09-23T18:20:30.519Z,100148.72
2022-09-23T18:23:25.844Z,100138.19
2022-09-23T18:26:06.031Z,100132.88
2022-09-23T18:28:53.305Z,100117.16
2022-09-23T18:31:43.654Z,100075.84
2022-09-23T18:34:32.458Z,100102.38
2022-09-23T18:37:18.830Z,100049.69
2022-09-23T18:39:59.704Z,100094.34
2022-09-23T18:42:58.592Z,100080.44
2022-09-23T18:46:06.702Z,100001.31
2022-09-23T18:48:58.009Z,100059.88
2022-09-23T18:52:01.665Z,100073.50
2022-09-23T18:57:42.432Z,100078.56
2022-09-23T19:00:31.129Z,100080.22
2022-09-23T19:03:18.021Z,100076.69
2022-09-23T19:06:03.346Z,100066.22
2022-09-23T19:09:04.592Z,100069.75
2022-09-23T19:11:44.531Z,100041.94
2022-09-23T19:14:24.665Z,100052.94
2022-09-23T19:17:13.654Z,100033.03
2022-09-23T19:19:54.606Z,100050.13
2022-09-23T19:22:36.353Z,100053.50
2022-09-23T19:25:19.116Z,100045.63
2022-09-23T19:28:05.216Z,100037.59
2022-09-23T19:30:57.383Z,100015.78
2022-09-23T19:33:39.054Z,100007.06
2022-09-23T19:36:15.335Z,100001.94
2022-09-23T19:39:05.075Z,99995.00
2022-09-23T19:41:52.875Z,99980.25
2022-09-23T19:44:35.099Z,99978.38
2022-09-23T19:47:22.824Z,99962.66
2022-09-23T19:50:00.119Z,99942.59
2022-09-23T19:52:39.679Z,99947.00
2022-09-23T19:55:19.363Z,99935.72
2022-09-23T19:58:05.449Z,99931.47
2022-09-23T20:00:49.091Z,99931.56
2022-09-23T20:03:27.150Z,99941.94
2022-09-23T20:06:25.235Z,99933.91
2022-09-23T20:09:09.326Z,99926.75
2022-09-23T20:11:54.289Z,99933.66
2022-09-23T20:14:47.481Z,99943.16
2022-09-23T20:17:32.906Z,99938.00
2022-09-23T20:20:21.885Z,99962.38
2022-09-23T20:23:13.471Z,99978.09
2022-09-23T20:26:28.995Z,99967.56
2022-09-23T20:29:18.305Z,99964.97
2022-09-23T20:32:10.727Z,99953.72
2022-09-23T20:34:55.815Z,99943.31
2022-09-23T20:37:35.187Z,99943.28
2022-09-23T20:40:16.418Z,99943.31
2022-09-23T20:43:02.128Z,99943.31
2022-09-23T20:45:42.159Z,99943.38
2022-09-23T20:48:30.013Z,99932.84
2022-09-23T20:51:11.114Z,99935.41
2022-09-23T20:53:59.595Z,99924.91
2022-09-23T20:56:45.129Z,99914.44
2022-09-23T20:59:24.484Z,99920.56
2022-09-23T21:02:07.667Z,99918.69
2022-09-23T21:05:01.729Z,99925.66
2022-09-23T21:07:38.314Z,99939.47
2022-09-23T21:10:19.743Z,99918.56
2022-09-23T21:13:01.951Z,99914.88
2022-09-23T21:15:57.122Z,99878.34
2022-09-23T21:19:19.030Z,99877.59
2022-09-23T21:22:11.963Z,99851.66
2022-09-23T21:25:26.213Z,99863.63
2022-09-23T21:30:55.692Z,99873.06
2022-09-23T21:33:32.780Z,99871.28
2022-09-23T21:36:13.977Z,99861.53
2022-09-23T21:39:11.612Z,99857.97
2022-09-23T21:41:56.149Z,99847.38
2022-09-23T21:44:36.078Z,99832.44
2022-09-23T21:47:30.561Z,99785.00
2022-09-23T21:50:19.598Z,99823.66
2022-09-23T21:53:15.912Z,99814.97
2022-09-23T21:56:14.021Z,99810.66
2022-09-23T21:59:13.823Z,99730.84
2022-09-23T22:01:54.302Z,99813.38
2022-09-23T22:04:42.844Z,99825.44
2022-09-23T22:07:21.093Z,99808.88
2022-09-23T22:10:18.653Z,99809.84
2022-09-23T22:13:10.551Z,99795.75
2022-09-23T22:16:03.892Z,99781.94
2022-09-23T22:18:40.979Z,99807.53
2022-09-23T22:21:27.257Z,99814.22
2022-09-23T22:24:11.611Z,99790.72
2022-09-23T22:27:00.472Z,99760.16
2022-09-23T22:32:55.297Z,99801.13
2022-09-23T22:35:34.992Z,99792.13
2022-09-23T22:38:26.617Z,99785.97
2022-09-23T22:41:17.725Z,99777.22
2022-09-23T22:44:05.459Z,99792.63
2022-09-23T22:47:05.719Z,99752.03
2022-09-23T22:49:50.111Z,99771.88
2022-09-23T22:52:39.924Z,99704.94
2022-09-23T22:55:35.472Z,99766.63
2022-09-23T22:58:32.150Z,99713.28
2022-09-23T23:01:21.570Z,99698.47
2022-09-23T23:04:21.292Z,99713.97
2022-09-23T23:07:07.112Z,99688.28
2022-09-23T23:10:07.140Z,99696.66
2022-09-23T23:12:52.367Z,99679.13
2022-09-23T23:15:58.871Z,99658.88
2022-09-23T23:18:42.029Z,99571.84
2022-09-23T23:21:35.966Z,99639.44
2022-09-23T23:24:27.050Z,99656.22
2022-09-23T23:27:08.712Z,99661.09
2022-09-23T23:29:47.113Z,99670.53
2022-09-23T23:32:28.374Z,99667.03
2022-09-23T23:35:39.434Z,99652.34
2022-09-23T23:38:33.353Z,99665.19
2022-09-23T23:41:25.336Z,99678.03
2022-09-23T23:44:09.606Z,99676.19
2022-09-23T23:46:53.244Z,99674.28
2022-09-23T23:49:34.211Z,99663.41
2022-09-23T23:52:23.584Z,99668.47
2022-09-23T23:55:16.867Z,99650.81
2022-09-23T23:57:56.413Z,99646.78
